Time;durP1;ratioP1;P1;durP2;ratioP2;P2;SDS_P1;SDS_P2;PMS_P1;PMS_P2;Temp;Humidity;BMP_temperature;BMP_pressure;BME280_temperature;BME280_humidity;BME280_pressure;Samples;Min_cycle;Max_cycle;Signal;HPM_P1;HPM_P2
2021/04/04 00:00:27;;;;;;;19.90;6.97;;;6.00;99.90;;;;;;4975066;28;20200;-76
2021/04/04 00:02:54;;;;;;;26.63;6.50;;;6.00;99.90;;;;;;4974219;28;20185;-76
2021/04/04 00:05:20;;;;;;;18.30;7.60;;;6.00;99.90;;;;;;4979903;28;20432;-76
2021/04/04 00:07:45;;;;;;;19.40;5.83;;;6.00;99.90;;;;;;4975839;28;20464;-76
2021/04/04 00:10:12;;;;;;;13.97;6.03;;;6.00;99.90;;;;;;4973105;28;20819;-75
2021/04/04 00:12:38;;;;;;;31.00;7.33;;;6.00;99.90;;;;;;4982371;28;20204;-76
2021/04/04 00:15:06;;;;;;;25.23;6.90;;;5.90;99.90;;;;;;4992421;28;20478;-76
2021/04/04 00:17:31;;;;;;;14.90;6.00;;;5.90;99.90;;;;;;4975875;28;20278;-76
2021/04/04 00:19:57;;;;;;;28.70;6.97;;;5.90;99.90;;;;;;4971328;28;20540;-75
2021/04/04 00:22:23;;;;;;;19.30;6.00;;;5.90;99.90;;;;;;4972718;28;20225;-76
2021/04/04 00:24:48;;;;;;;12.97;5.97;;;5.90;99.90;;;;;;4972833;28;20706;-76
2021/04/04 00:27:14;;;;;;;33.70;5.80;;;5.90;99.90;;;;;;4972849;28;20200;-76
2021/04/04 00:29:40;;;;;;;18.30;7.00;;;5.80;99.90;;;;;;4958842;28;20251;-75
2021/04/04 00:32:05;;;;;;;18.60;5.93;;;5.80;99.90;;;;;;4953673;29;20174;-76
2021/04/04 00:34:31;;;;;;;14.47;7.17;;;5.80;99.90;;;;;;4972142;28;20178;-76
2021/04/04 00:36:57;;;;;;;17.57;6.63;;;5.70;99.90;;;;;;4972766;28;20197;-75
2021/04/04 00:39:22;;;;;;;20.87;6.70;;;5.70;99.90;;;;;;4972130;28;20198;-75
2021/04/04 00:41:48;;;;;;;12.07;6.40;;;5.60;99.90;;;;;;4972792;28;20178;-75
2021/04/04 00:44:14;;;;;;;11.77;6.30;;;5.70;99.90;;;;;;4972396;28;20201;-76
2021/04/04 00:46:40;;;;;;;29.00;6.23;;;5.60;99.90;;;;;;4972600;28;20209;-76
2021/04/04 00:49:05;;;;;;;20.40;6.60;;;5.70;99.90;;;;;;4972435;28;20830;-76
2021/04/04 00:51:32;;;;;;;9.87;6.00;;;5.60;99.90;;;;;;4972136;28;20933;-75
2021/04/04 00:53:58;;;;;;;14.37;6.40;;;5.70;99.90;;;;;;4972025;28;20420;-76
2021/04/04 00:56:24;;;;;;;26.27;7.17;;;5.70;99.90;;;;;;4972287;28;20448;-75
2021/04/04 00:58:50;;;;;;;30.93;7.90;;;5.70;99.90;;;;;;4973301;28;20927;-76
2021/04/04 01:01:15;;;;;;;18.13;5.70;;;5.80;99.90;;;;;;4975750;28;20193;-76
2021/04/04 01:03:41;;;;;;;26.47;7.27;;;5.80;99.90;;;;;;4976521;28;20245;-76
2021/04/04 01:06:08;;;;;;;23.43;6.40;;;5.80;99.90;;;;;;4976639;28;20247;-76
2021/04/04 01:08:35;;;;;;;26.23;6.80;;;5.80;99.90;;;;;;4978318;28;20181;-75
2021/04/04 01:11:02;;;;;;;11.37;5.90;;;5.80;99.90;;;;;;5008298;28;20448;-76
2021/04/04 01:13:42;;;;;;;15.50;5.83;;;5.90;99.90;;;;;;4986627;28;20784;-76
2021/04/04 01:16:10;;;;;;;22.93;8.07;;;5.90;99.90;;;;;;4992453;28;20801;-76
2021/04/04 01:18:43;;;;;;;27.73;6.10;;;5.90;99.90;;;;;;4987003;28;20800;-75
2021/04/04 01:21:21;;;;;;;15.40;5.70;;;5.90;99.90;;;;;;4981163;28;20456;-76
2021/04/04 01:24:06;;;;;;;17.73;7.43;;;5.90;99.90;;;;;;4985412;28;20440;-76
2021/04/04 01:26:39;;;;;;;22.13;6.43;;;6.00;99.90;;;;;;4976284;28;20535;-76
2021/04/04 01:29:05;;;;;;;23.17;6.50;;;5.90;99.90;;;;;;4968624;28;20456;-76
2021/04/04 01:31:36;;;;;;;16.20;7.77;;;6.00;99.90;;;;;;4976478;28;20420;-76
2021/04/04 01:34:04;;;;;;;15.33;5.77;;;6.00;99.90;;;;;;4975813;28;20417;-76
2021/04/04 01:36:32;;;;;;;17.30;6.40;;;6.10;99.90;;;;;;4976649;28;20854;-76
2021/04/04 01:39:01;;;;;;;22.13;7.33;;;6.10;99.90;;;;;;4976431;28;20455;-76
2021/04/04 01:41:31;;;;;;;21.20;6.43;;;6.10;99.90;;;;;;4976509;28;20890;-76
2021/04/04 01:44:04;;;;;;;13.40;5.43;;;6.20;99.90;;;;;;4978920;28;20984;-76
2021/04/04 01:46:30;;;;;;;31.63;7.27;;;6.10;99.90;;;;;;4976209;28;20457;-75
2021/04/04 01:48:56;;;;;;;16.00;6.73;;;6.10;99.90;;;;;;4976997;28;20472;-76
2021/04/04 01:51:23;;;;;;;16.93;6.10;;;6.20;99.90;;;;;;4976123;28;20437;-75
2021/04/04 01:53:50;;;;;;;14.80;6.20;;;6.20;99.90;;;;;;4975099;28;20397;-76
2021/04/04 01:56:17;;;;;;;19.27;7.53;;;6.20;99.90;;;;;;4978615;28;20560;-76
2021/04/04 01:58:44;;;;;;;15.63;6.53;;;6.30;99.90;;;;;;4975898;28;20943;-76
2021/04/04 02:01:11;;;;;;;18.93;6.50;;;6.30;99.90;;;;;;4982414;28;20455;-75
2021/04/04 02:03:37;;;;;;;24.27;6.10;;;6.30;99.90;;;;;;4989508;28;20860;-75
2021/04/04 02:06:04;;;;;;;18.00;7.50;;;6.30;99.90;;;;;;4974456;28;20489;-76
2021/04/04 02:08:30;;;;;;;20.73;6.97;;;6.40;99.90;;;;;;4979315;28;20185;-75
2021/04/04 02:10:56;;;;;;;20.07;7.33;;;6.30;99.90;;;;;;4986884;28;20440;-76
2021/04/04 02:13:24;;;;;;;15.00;6.77;;;6.20;99.90;;;;;;4995222;28;20405;-76
2021/04/04 02:15:51;;;;;;;14.57;6.30;;;6.20;99.90;;;;;;4993512;28;20432;-76
2021/04/04 02:18:16;;;;;;;18.77;5.80;;;6.30;99.90;;;;;;4984236;28;20425;-76
2021/04/04 02:20:45;;;;;;;28.80;6.33;;;6.20;99.90;;;;;;4988262;28;20456;-77
2021/04/04 02:23:11;;;;;;;13.93;5.63;;;6.30;99.90;;;;;;4978639;28;20173;-77
2021/04/04 02:25:39;;;;;;;25.00;7.40;;;6.40;99.90;;;;;;4979326;28;20431;-76
2021/04/04 02:28:05;;;;;;;17.97;6.67;;;6.40;99.90;;;;;;4976905;28;20421;-77
2021/04/04 02:30:31;;;;;;;17.90;6.27;;;6.40;99.90;;;;;;4989189;28;20543;-76
2021/04/04 02:33:12;;;;;;;14.70;6.30;;;6.40;99.90;;;;;;4986002;28;20824;-76
2021/04/04 02:35:42;;;;;;;12.10;6.27;;;6.50;99.90;;;;;;4974140;28;20520;-77
2021/04/04 02:38:18;;;;;;;16.97;6.50;;;6.40;99.90;;;;;;4974970;28;20419;-77
2021/04/04 02:40:46;;;;;;;16.50;6.47;;;6.30;99.90;;;;;;4989894;28;20455;-76
2021/04/04 02:43:23;;;;;;;18.20;7.47;;;6.40;99.90;;;;;;4991390;28;20548;-76
2021/04/04 02:45:51;;;;;;;14.53;6.20;;;6.40;99.90;;;;;;4994373;28;20778;-76
2021/04/04 02:48:19;;;;;;;20.03;6.50;;;6.40;99.90;;;;;;4990350;28;20438;-76
2021/04/04 02:50:47;;;;;;;20.40;7.00;;;6.40;99.90;;;;;;4986162;28;20493;-76
2021/04/04 02:53:15;;;;;;;23.63;7.70;;;6.40;99.90;;;;;;4987934;28;20425;-76
2021/04/04 02:55:42;;;;;;;21.47;7.30;;;6.40;99.90;;;;;;4975790;28;20455;-76
2021/04/04 02:58:10;;;;;;;15.50;8.80;;;6.40;99.90;;;;;;4976577;28;20516;-76
2021/04/04 03:00:40;;;;;;;17.63;7.00;;;6.40;99.90;;;;;;4978868;28;20783;-75
2021/04/04 03:03:07;;;;;;;16.37;7.40;;;6.40;99.90;;;;;;5020184;28;20522;-76
2021/04/04 03:05:33;;;;;;;26.53;7.70;;;6.50;99.90;;;;;;4991146;28;20874;-76
2021/04/04 03:08:05;;;;;;;13.13;6.27;;;6.40;99.90;;;;;;4992719;28;20424;-76
2021/04/04 03:10:32;;;;;;;17.40;6.70;;;6.40;99.90;;;;;;4975341;28;20459;-76
2021/04/04 03:12:58;;;;;;;12.17;6.87;;;6.50;99.90;;;;;;4989475;28;20432;-77
2021/04/04 03:15:26;;;;;;;25.93;7.47;;;6.40;99.90;;;;;;4983969;28;20444;-76
2021/04/04 03:17:53;;;;;;;27.20;6.90;;;6.40;99.90;;;;;;4988538;28;20468;-76
2021/04/04 03:20:20;;;;;;;15.10;6.20;;;6.40;99.90;;;;;;4987649;28;20506;-77
2021/04/04 03:22:46;;;;;;;12.23;6.13;;;6.40;99.90;;;;;;4975438;28;20507;-77
2021/04/04 03:25:13;;;;;;;21.13;6.90;;;6.40;99.90;;;;;;4984692;28;20428;-75
2021/04/04 03:27:45;;;;;;;26.90;7.20;;;6.40;99.90;;;;;;4987427;28;20460;-75
2021/04/04 03:32:58;;;;;;;19.33;6.70;;;6.50;99.90;;;;;;4978483;28;20485;-75
2021/04/04 03:35:24;;;;;;;16.20;6.73;;;6.50;99.90;;;;;;4992487;28;20407;-76
2021/04/04 03:37:52;;;;;;;10.40;6.10;;;6.50;99.90;;;;;;4987427;28;20436;-76
2021/04/04 03:40:18;;;;;;;26.63;6.83;;;6.40;99.90;;;;;;4980509;28;20457;-76
2021/04/04 03:42:45;;;;;;;18.40;6.13;;;6.40;99.90;;;;;;4991199;28;21146;-77
2021/04/04 03:45:12;;;;;;;24.87;6.63;;;6.50;99.90;;;;;;4990961;28;20259;-77
2021/04/04 03:47:39;;;;;;;22.97;7.43;;;6.50;99.90;;;;;;4987173;28;20451;-77
2021/04/04 03:50:05;;;;;;;18.37;7.50;;;6.60;99.90;;;;;;4974351;28;20443;-77
2021/04/04 03:52:32;;;;;;;17.07;6.00;;;6.50;99.90;;;;;;4985801;28;20430;-77
2021/04/04 03:54:59;;;;;;;18.77;6.17;;;6.40;99.90;;;;;;4973448;28;20846;-77
2021/04/04 03:57:25;;;;;;;20.97;6.50;;;6.50;99.90;;;;;;4987623;28;20431;-77
2021/04/04 03:59:53;;;;;;;17.00;6.53;;;6.50;99.90;;;;;;5023252;28;20459;-77
2021/04/04 04:02:22;;;;;;;19.00;6.27;;;6.40;99.90;;;;;;4985671;28;20960;-77
2021/04/04 04:04:48;;;;;;;23.60;6.53;;;6.40;99.90;;;;;;4979652;28;20439;-77
2021/04/04 04:07:14;;;;;;;28.83;8.10;;;6.40;99.90;;;;;;4992892;28;20495;-77
2021/04/04 04:09:41;;;;;;;11.10;5.83;;;6.40;99.90;;;;;;4986802;28;20486;-77
2021/04/04 04:12:07;;;;;;;14.50;5.70;;;6.50;99.90;;;;;;4985196;28;21101;-77
2021/04/04 04:14:33;;;;;;;17.37;7.20;;;6.50;99.90;;;;;;4991091;28;20407;-77
2021/04/04 04:17:01;;;;;;;21.83;7.77;;;6.50;99.90;;;;;;4991715;28;20432;-77
2021/04/04 04:19:27;;;;;;;14.33;6.63;;;6.50;99.90;;;;;;4990793;28;20452;-77
2021/04/04 04:21:53;;;;;;;14.47;6.40;;;6.50;99.90;;;;;;4990273;28;20423;-77
2021/04/04 04:24:19;;;;;;;19.17;7.10;;;6.50;99.90;;;;;;4980289;28;20567;-77
2021/04/04 04:26:47;;;;;;;17.87;6.57;;;6.50;99.90;;;;;;5004127;28;20962;-77
2021/04/04 04:29:15;;;;;;;18.90;6.67;;;6.50;99.90;;;;;;4971282;28;20428;-77
2021/04/04 04:31:46;;;;;;;24.17;7.27;;;6.50;99.90;;;;;;4972455;28;20483;-75
2021/04/04 04:34:12;;;;;;;16.93;5.83;;;6.60;99.90;;;;;;4974981;28;20420;-77
2021/04/04 04:36:39;;;;;;;24.93;7.20;;;6.60;99.90;;;;;;4976365;28;20456;-77
2021/04/04 04:39:08;;;;;;;16.73;8.30;;;6.60;99.90;;;;;;4985538;28;20498;-77
2021/04/04 04:41:35;;;;;;;13.70;6.47;;;6.60;99.90;;;;;;4978814;28;20437;-78
2021/04/04 04:44:04;;;;;;;14.20;6.77;;;6.60;99.90;;;;;;4975240;28;20437;-77
2021/04/04 04:46:31;;;;;;;17.87;6.37;;;6.60;99.90;;;;;;4981854;28;20460;-76
2021/04/04 04:48:58;;;;;;;19.67;7.00;;;6.60;99.90;;;;;;4983283;28;20434;-76
2021/04/04 04:51:24;;;;;;;19.57;6.50;;;6.60;99.90;;;;;;4977193;28;20949;-76
2021/04/04 04:53:51;;;;;;;13.43;6.57;;;6.70;99.90;;;;;;5013354;28;20433;-77
2021/04/04 04:56:17;;;;;;;11.90;6.30;;;6.70;99.90;;;;;;4990045;28;20453;-77
2021/04/04 04:58:43;;;;;;;19.53;6.20;;;6.70;99.90;;;;;;4979282;28;20436;-76
2021/04/04 05:01:23;;;;;;;19.20;7.20;;;6.70;99.90;;;;;;4987352;28;20483;-76
2021/04/04 05:03:49;;;;;;;20.10;7.00;;;6.60;99.90;;;;;;4975601;28;20413;-77
2021/04/04 05:06:15;;;;;;;19.10;7.63;;;6.60;99.90;;;;;;4976519;28;20457;-77
2021/04/04 05:08:45;;;;;;;27.63;8.33;;;6.60;99.90;;;;;;4987973;28;20177;-77
2021/04/04 05:11:18;;;;;;;22.80;5.70;;;6.60;99.90;;;;;;4984147;28;20513;-77
2021/04/04 05:13:44;;;;;;;20.40;6.97;;;6.60;99.90;;;;;;4980771;28;20442;-77
2021/04/04 05:16:12;;;;;;;20.70;7.37;;;6.60;99.90;;;;;;4976274;28;20436;-77
2021/04/04 05:18:48;;;;;;;22.83;6.73;;;6.70;99.90;;;;;;4992147;28;20427;-77
2021/04/04 05:21:27;;;;;;;16.10;8.43;;;6.60;99.90;;;;;;4990681;28;20971;-78
2021/04/04 05:24:04;;;;;;;13.27;6.17;;;6.70;99.90;;;;;;4983471;28;20428;-77
2021/04/04 05:26:32;;;;;;;17.10;6.70;;;6.70;99.90;;;;;;4994247;28;20475;-77
2021/04/04 05:29:06;;;;;;;15.70;6.93;;;6.70;99.90;;;;;;4987458;28;20436;-77
2021/04/04 05:31:32;;;;;;;18.47;6.90;;;6.70;99.90;;;;;;4987149;28;20425;-77
2021/04/04 05:33:59;;;;;;;20.70;6.80;;;6.60;99.90;;;;;;4988692;28;20462;-76
2021/04/04 05:36:24;;;;;;;15.70;6.90;;;6.70;99.90;;;;;;4978145;28;20178;-77
2021/04/04 05:38:57;;;;;;;15.13;6.23;;;6.60;99.90;;;;;;4978035;28;20440;-76
2021/04/04 05:41:27;;;;;;;20.57;6.60;;;6.60;99.90;;;;;;4984088;28;20228;-77
2021/04/04 05:43:59;;;;;;;17.17;5.80;;;6.60;99.90;;;;;;4976368;28;20434;-77
2021/04/04 05:46:35;;;;;;;17.23;5.87;;;6.60;99.90;;;;;;4993490;28;21089;-77
2021/04/04 05:49:04;;;;;;;14.57;6.17;;;6.60;99.90;;;;;;4982181;28;20428;-77
2021/04/04 05:51:34;;;;;;;17.90;6.00;;;6.50;99.90;;;;;;4984005;28;20443;-77
2021/04/04 05:54:14;;;;;;;15.33;6.03;;;6.50;99.90;;;;;;4993393;28;20435;-77
2021/04/04 05:56:48;;;;;;;11.37;5.73;;;6.70;99.90;;;;;;4977534;28;20459;-77
2021/04/04 05:59:23;;;;;;;13.03;6.20;;;6.60;99.90;;;;;;4985931;28;20522;-77
2021/04/04 06:02:05;;;;;;;14.10;5.57;;;6.60;99.90;;;;;;4978062;28;20424;-77
2021/04/04 06:04:46;;;;;;;18.03;5.90;;;6.60;99.90;;;;;;4983234;28;20431;-77
2021/04/04 06:07:25;;;;;;;22.03;6.17;;;6.60;99.90;;;;;;5005327;28;20456;-77
2021/04/04 06:10:09;;;;;;;22.90;7.10;;;6.60;99.90;;;;;;4979431;28;20791;-77
2021/04/04 06:12:57;;;;;;;15.30;6.30;;;6.70;99.90;;;;;;4980605;28;20519;-77
2021/04/04 06:15:38;;;;;;;15.43;6.83;;;6.80;99.90;;;;;;4990906;28;20435;-77
2021/04/04 06:18:27;;;;;;;18.90;7.50;;;6.80;99.90;;;;;;4972157;28;20438;-77
2021/04/04 06:21:25;;;;;;;13.07;5.70;;;6.90;99.90;;;;;;4985737;28;20455;-78
2021/04/04 06:23:55;;;;;;;20.87;5.50;;;6.90;99.90;;;;;;4993313;28;20958;-77
2021/04/04 06:26:36;;;;;;;24.80;6.83;;;6.90;99.90;;;;;;4972683;28;20465;-78
2021/04/04 06:29:25;;;;;;;18.43;5.93;;;6.90;99.90;;;;;;4981620;28;20436;-78
2021/04/04 06:31:59;;;;;;;14.50;6.10;;;7.00;99.90;;;;;;4978134;28;20787;-77
2021/04/04 06:34:49;;;;;;;18.07;6.27;;;7.10;99.90;;;;;;4982367;28;20432;-78
2021/04/04 06:37:39;;;;;;;11.30;5.20;;;7.20;99.90;;;;;;4974755;28;20428;-77
2021/04/04 06:40:10;;;;;;;21.43;5.80;;;7.20;99.90;;;;;;4990469;28;20576;-77
2021/04/04 06:42:57;;;;;;;12.17;6.80;;;7.20;99.90;;;;;;4977189;28;20432;-78
2021/04/04 06:45:40;;;;;;;16.00;4.70;;;7.30;99.90;;;;;;4991315;28;20444;-77
2021/04/04 06:48:38;;;;;;;12.63;5.23;;;7.30;99.90;;;;;;4982041;28;20963;-77
2021/04/04 06:51:49;;;;;;;13.93;6.90;;;7.30;99.90;;;;;;4976534;28;20555;-77
2021/04/04 06:54:39;;;;;;;12.80;6.53;;;7.40;99.90;;;;;;4977037;28;20437;-77
2021/04/04 06:57:12;;;;;;;20.93;6.30;;;7.40;99.90;;;;;;4978686;28;20542;-77
2021/04/04 07:00:03;;;;;;;17.93;6.17;;;7.40;99.90;;;;;;4983087;28;20941;-77
2021/04/04 07:02:40;;;;;;;12.53;5.60;;;7.40;99.90;;;;;;4992693;28;20447;-78
2021/04/04 07:05:14;;;;;;;19.70;6.30;;;7.40;99.90;;;;;;5022348;28;20527;-77
2021/04/04 07:07:51;;;;;;;21.30;6.77;;;7.50;99.90;;;;;;4988693;28;20952;-77
2021/04/04 07:10:38;;;;;;;22.43;6.33;;;7.50;99.90;;;;;;4987375;28;20870;-78
2021/04/04 07:13:13;;;;;;;20.60;6.90;;;7.50;99.90;;;;;;4980978;28;20460;-77
2021/04/04 07:16:09;;;;;;;14.50;6.43;;;7.60;99.90;;;;;;4974137;28;20440;-78
2021/04/04 07:19:02;;;;;;;14.33;5.87;;;7.60;99.90;;;;;;4989666;28;20442;-78
2021/04/04 07:21:55;;;;;;;17.80;7.03;;;7.70;99.90;;;;;;4981355;28;20508;-77
2021/04/04 07:24:49;;;;;;;14.03;6.13;;;7.70;99.90;;;;;;4975132;28;20475;-77
2021/04/04 07:27:19;;;;;;;28.37;6.37;;;7.70;99.90;;;;;;4976830;28;20464;-77
2021/04/04 07:30:29;;;;;;;25.30;6.43;;;7.70;99.90;;;;;;5011640;28;20510;-78
2021/04/04 07:33:17;;;;;;;18.53;6.07;;;7.70;99.90;;;;;;4949420;28;20467;-77
2021/04/04 07:36:04;;;;;;;17.03;5.20;;;7.90;99.90;;;;;;4982723;28;20467;-78
2021/04/04 07:38:47;;;;;;;10.03;5.00;;;7.90;99.90;;;;;;4974508;28;20891;-78
2021/04/04 07:41:30;;;;;;;15.20;6.30;;;8.10;99.90;;;;;;4960774;28;20448;-77
2021/04/04 07:44:19;;;;;;;13.13;4.73;;;8.10;99.90;;;;;;4979757;28;20531;-77
2021/04/04 07:47:12;;;;;;;13.90;6.07;;;8.20;99.90;;;;;;4976358;28;20517;-78
2021/04/04 07:49:45;;;;;;;16.03;5.50;;;8.30;99.90;;;;;;4981493;28;20452;-78
2021/04/04 07:52:35;;;;;;;13.97;5.70;;;8.40;99.90;;;;;;4989688;28;20431;-78
2021/04/04 07:55:04;;;;;;;12.27;5.80;;;8.50;99.90;;;;;;4993280;28;20944;-78
2021/04/04 07:57:55;;;;;;;14.67;5.60;;;8.50;99.90;;;;;;5006078;28;20534;-78
2021/04/04 08:00:22;;;;;;;13.73;5.90;;;8.40;99.90;;;;;;4981921;28;20874;-78
2021/04/04 08:03:05;;;;;;;17.70;6.97;;;8.40;99.90;;;;;;4982059;28;20433;-78
2021/04/04 08:05:36;;;;;;;18.00;5.77;;;8.40;99.90;;;;;;4980585;28;20467;-78
2021/04/04 08:08:07;;;;;;;13.73;4.77;;;8.30;99.90;;;;;;4988286;28;20459;-78
2021/04/04 08:10:38;;;;;;;12.00;5.60;;;8.40;99.90;;;;;;4986621;28;20452;-77
2021/04/04 08:13:20;;;;;;;9.30;4.87;;;8.50;99.90;;;;;;5013463;28;20522;-77
2021/04/04 08:15:55;;;;;;;10.67;6.30;;;8.60;99.90;;;;;;4986445;28;20432;-78
2021/04/04 08:18:21;;;;;;;13.97;5.83;;;8.50;99.90;;;;;;5019699;28;20429;-78
2021/04/04 08:20:49;;;;;;;14.43;4.80;;;8.50;99.90;;;;;;4991956;28;20451;-78
2021/04/04 08:23:23;;;;;;;12.57;4.20;;;8.30;99.90;;;;;;4981545;28;20695;-78
2021/04/04 08:26:02;;;;;;;9.53;5.23;;;8.30;99.90;;;;;;4981610;28;20432;-77
2021/04/04 08:28:59;;;;;;;15.80;5.10;;;8.30;99.90;;;;;;4983300;28;20494;-76
2021/04/04 08:31:30;;;;;;;9.13;6.33;;;8.30;99.90;;;;;;4978919;28;20808;-78
2021/04/04 08:34:10;;;;;;;16.97;7.13;;;8.30;99.90;;;;;;4978095;28;20424;-78
2021/04/04 08:36:45;;;;;;;15.83;5.70;;;8.30;99.90;;;;;;4989979;28;20486;-78
2021/04/04 08:39:16;;;;;;;10.13;5.10;;;8.30;99.90;;;;;;4975629;28;20436;-78
2021/04/04 08:41:44;;;;;;;8.63;5.67;;;8.30;99.90;;;;;;4973550;28;20432;-78
2021/04/04 08:44:22;;;;;;;17.13;7.00;;;8.30;99.90;;;;;;4979929;28;20435;-78
2021/04/04 08:46:56;;;;;;;11.17;4.73;;;8.30;99.90;;;;;;4977895;28;20456;-78
2021/04/04 08:49:22;;;;;;;19.33;5.00;;;8.30;99.90;;;;;;4992172;28;21068;-78
2021/04/04 08:52:18;;;;;;;12.23;4.20;;;8.30;99.90;;;;;;4995362;28;20439;-78
2021/04/04 08:54:50;;;;;;;11.00;4.03;;;8.30;99.90;;;;;;4988865;28;20428;-78
2021/04/04 08:57:19;;;;;;;9.20;5.10;;;8.30;99.90;;;;;;4993303;28;20944;-78
2021/04/04 08:59:51;;;;;;;9.13;4.63;;;8.30;99.90;;;;;;4993068;28;20510;-77
2021/04/04 09:02:18;;;;;;;14.40;5.97;;;8.30;99.90;;;;;;4992688;28;20439;-78
2021/04/04 09:04:43;;;;;;;10.83;4.30;;;8.40;99.90;;;;;;4995984;28;20439;-78
2021/04/04 09:07:10;;;;;;;9.57;3.93;;;8.40;99.90;;;;;;4994125;28;20836;-78
2021/04/04 09:09:45;;;;;;;9.00;5.40;;;8.30;99.90;;;;;;4980085;28;20197;-77
2021/04/04 09:12:12;;;;;;;13.03;6.53;;;8.20;99.90;;;;;;4987252;28;20439;-78
2021/04/04 09:14:41;;;;;;;9.40;5.03;;;8.20;99.90;;;;;;5019295;28;20427;-78
2021/04/04 09:17:10;;;;;;;17.70;9.37;;;8.40;99.90;;;;;;4992633;28;20988;-77
2021/04/04 09:19:38;;;;;;;21.70;8.17;;;8.40;99.90;;;;;;4970750;28;20448;-77
2021/04/04 09:22:21;;;;;;;13.80;4.73;;;8.50;99.90;;;;;;5000648;28;20487;-78
2021/04/04 09:24:56;;;;;;;4.60;2.90;;;8.50;99.90;;;;;;4985794;28;20424;-77
2021/04/04 09:27:42;;;;;;;13.93;4.70;;;8.40;99.90;;;;;;4986850;28;20448;-77
2021/04/04 09:30:34;;;;;;;15.87;5.43;;;8.50;99.90;;;;;;4982470;28;20459;-75
2021/04/04 09:33:03;;;;;;;10.93;5.10;;;8.50;99.90;;;;;;4976424;28;20926;-76
2021/04/04 09:35:30;;;;;;;12.00;4.80;;;8.60;99.90;;;;;;4990018;28;20431;-75
2021/04/04 09:38:05;;;;;;;8.60;4.50;;;8.50;99.90;;;;;;4993375;28;20848;-76
2021/04/04 09:40:31;;;;;;;13.70;5.80;;;8.50;99.90;;;;;;4995256;28;20455;-76
2021/04/04 09:43:09;;;;;;;9.83;4.90;;;8.40;99.90;;;;;;4994404;28;20444;-76
2021/04/04 09:45:35;;;;;;;10.73;4.20;;;8.60;99.90;;;;;;4993418;28;20552;-75
2021/04/04 09:48:25;;;;;;;9.40;6.47;;;9.10;99.90;;;;;;4980713;28;20499;-76
2021/04/04 09:51:10;;;;;;;5.53;3.90;;;9.60;99.90;;;;;;4974480;28;20460;-76
2021/04/04 09:53:38;;;;;;;8.53;4.10;;;9.80;99.90;;;;;;4982807;28;22187;-76
2021/04/04 09:56:05;;;;;;;8.97;3.50;;;10.30;99.90;;;;;;4979099;28;20442;-76
2021/04/04 09:58:31;;;;;;;10.63;4.20;;;10.40;99.90;;;;;;4975697;28;20460;-75
2021/04/04 10:00:56;;;;;;;7.00;4.50;;;10.70;99.90;;;;;;4976710;28;20463;-77
2021/04/04 10:03:23;;;;;;;8.50;4.00;;;11.00;99.90;;;;;;4978953;28;20432;-77
2021/04/04 10:05:50;;;;;;;8.17;4.13;;;10.90;99.90;;;;;;4994124;28;20592;-77
2021/04/04 10:08:17;;;;;;;8.43;4.73;;;11.00;99.90;;;;;;4983243;28;20838;-78
2021/04/04 10:10:47;;;;;;;11.30;4.50;;;11.00;99.90;;;;;;4978481;28;20460;-78
2021/04/04 10:13:13;;;;;;;11.17;5.37;;;10.70;99.90;;;;;;4976100;28;20443;-78
2021/04/04 10:15:49;;;;;;;7.33;4.93;;;10.30;99.90;;;;;;4975766;28;20436;-78
2021/04/04 10:18:17;;;;;;;10.07;5.73;;;10.10;99.90;;;;;;4993742;28;20794;-78
2021/04/04 10:20:52;;;;;;;13.00;5.67;;;9.80;99.90;;;;;;4979550;28;20455;-78
2021/04/04 10:23:19;;;;;;;11.53;5.90;;;9.50;99.90;;;;;;4993510;28;20431;-78
2021/04/04 10:26:07;;;;;;;13.63;6.50;;;9.60;99.90;;;;;;4973823;28;20432;-78
2021/04/04 10:28:49;;;;;;;9.47;5.57;;;9.70;99.90;;;;;;4980597;28;20873;-77
2021/04/04 10:31:16;;;;;;;12.17;5.90;;;9.70;99.90;;;;;;4994467;28;20436;-78
2021/04/04 10:33:42;;;;;;;11.57;5.53;;;9.60;99.90;;;;;;4995423;28;20416;-78
2021/04/04 10:36:10;;;;;;;8.57;3.90;;;9.60;99.90;;;;;;5006487;28;20428;-78
2021/04/04 10:38:36;;;;;;;17.03;6.60;;;9.60;99.90;;;;;;4978677;28;20433;-78
2021/04/04 10:41:01;;;;;;;8.67;5.00;;;9.60;99.90;;;;;;4968336;28;20528;-77
2021/04/04 10:43:47;;;;;;;12.10;5.13;;;9.70;99.90;;;;;;4993755;28;20582;-77
2021/04/04 10:46:14;;;;;;;7.27;4.87;;;9.40;99.90;;;;;;4981507;28;20232;-77
2021/04/04 10:48:48;;;;;;;14.10;6.53;;;9.60;99.90;;;;;;4988984;28;20470;-77
2021/04/04 10:51:15;;;;;;;11.03;5.33;;;9.70;99.90;;;;;;4968609;28;21021;-77
2021/04/04 10:53:42;;;;;;;8.30;5.23;;;9.60;99.90;;;;;;4991195;28;20451;-77
2021/04/04 10:56:08;;;;;;;11.20;5.50;;;9.70;99.90;;;;;;4990943;28;21011;-77
2021/04/04 10:58:35;;;;;;;9.33;5.00;;;9.70;99.90;;;;;;4992332;28;20509;-77
2021/04/04 11:01:03;;;;;;;14.00;6.57;;;9.80;99.90;;;;;;4973162;28;20452;-77
2021/04/04 11:03:29;;;;;;;10.50;5.60;;;9.70;99.90;;;;;;4967881;28;20432;-78
2021/04/04 11:05:55;;;;;;;14.40;7.80;;;9.60;99.90;;;;;;4976410;28;20992;-78
2021/04/04 11:08:21;;;;;;;15.97;7.03;;;9.70;99.90;;;;;;4974412;28;20528;-78
2021/04/04 11:10:48;;;;;;;9.97;7.03;;;9.80;99.90;;;;;;4973726;28;20449;-78
2021/04/04 11:13:16;;;;;;;13.23;7.57;;;9.50;99.90;;;;;;4979256;28;20447;-78
2021/04/04 11:15:50;;;;;;;16.33;12.47;;;9.70;99.90;;;;;;4975986;28;20433;-78
2021/04/04 11:18:23;;;;;;;12.10;8.13;;;9.50;99.90;;;;;;4974635;28;20427;-78
2021/04/04 11:20:53;;;;;;;17.40;8.03;;;9.50;99.90;;;;;;4975100;28;20456;-78
2021/04/04 11:23:19;;;;;;;12.70;9.07;;;9.60;99.90;;;;;;4985409;28;20934;-78
2021/04/04 11:25:45;;;;;;;16.03;8.80;;;9.40;99.90;;;;;;4976162;28;20435;-77
2021/04/04 11:28:19;;;;;;;13.90;7.10;;;9.40;99.90;;;;;;4993022;28;20444;-77
2021/04/04 11:30:46;;;;;;;17.73;12.10;;;9.50;99.90;;;;;;4975989;28;20240;-77
2021/04/04 11:33:18;;;;;;;17.93;9.50;;;9.50;99.90;;;;;;4976913;28;20439;-77
2021/04/04 11:36:10;;;;;;;18.60;10.50;;;9.60;99.90;;;;;;4980971;28;20424;-77
2021/04/04 11:39:07;;;;;;;22.13;8.20;;;9.80;99.90;;;;;;4983341;28;20170;-78
2021/04/04 11:41:45;;;;;;;21.83;13.77;;;9.90;99.90;;;;;;4985817;28;20432;-77
2021/04/04 11:44:25;;;;;;;13.40;9.30;;;10.00;99.90;;;;;;4973184;28;20977;-77
2021/04/04 11:46:52;;;;;;;20.43;10.10;;;9.90;99.90;;;;;;4971884;28;20459;-77
2021/04/04 11:49:29;;;;;;;14.07;8.90;;;9.80;99.90;;;;;;4974168;28;20458;-77
2021/04/04 11:51:59;;;;;;;13.73;9.80;;;9.80;99.90;;;;;;4986979;28;20436;-77
2021/04/04 11:54:49;;;;;;;13.40;8.30;;;9.80;99.90;;;;;;4977301;28;20432;-77
2021/04/04 11:57:22;;;;;;;10.73;6.67;;;10.00;99.90;;;;;;4977253;28;20883;-77
2021/04/04 11:59:54;;;;;;;14.53;9.30;;;10.00;99.90;;;;;;4992190;28;20888;-77
2021/04/04 12:02:23;;;;;;;18.23;12.57;;;10.00;99.90;;;;;;4984184;28;22110;-77
2021/04/04 12:05:02;;;;;;;20.10;16.53;;;10.20;99.90;;;;;;4983382;28;20462;-77
2021/04/04 12:07:27;;;;;;;22.50;15.30;;;10.00;99.90;;;;;;4976258;28;20461;-77
2021/04/04 12:09:55;;;;;;;21.63;15.20;;;9.70;99.90;;;;;;4987129;28;20457;-77
2021/04/04 12:12:21;;;;;;;25.40;15.43;;;9.60;99.90;;;;;;4973115;28;20177;-77
2021/04/04 12:14:53;;;;;;;22.87;16.40;;;9.80;99.90;;;;;;5000088;28;20521;-78
2021/04/04 12:17:21;;;;;;;25.13;19.07;;;9.90;99.90;;;;;;4982037;28;20177;-77
2021/04/04 12:19:47;;;;;;;20.53;13.53;;;9.90;99.90;;;;;;4972658;28;20565;-75
2021/04/04 12:22:14;;;;;;;21.97;11.77;;;9.80;99.90;;;;;;4982160;28;20516;-76
2021/04/04 12:24:47;;;;;;;12.83;9.43;;;9.80;99.90;;;;;;4979013;28;20192;-77
2021/04/04 12:27:15;;;;;;;12.13;8.53;;;9.90;99.90;;;;;;4980635;28;20472;-77
2021/04/04 12:29:41;;;;;;;19.63;11.50;;;9.80;99.90;;;;;;4986064;28;20546;-77
2021/04/04 12:32:08;;;;;;;21.83;11.27;;;9.80;99.90;;;;;;5005436;28;20489;-78
2021/04/04 12:34:41;;;;;;;15.60;10.10;;;9.90;99.90;;;;;;4995524;28;20188;-78
2021/04/04 12:37:12;;;;;;;12.67;8.83;;;10.00;99.90;;;;;;4977863;28;20467;-78
2021/04/04 12:39:40;;;;;;;13.73;9.20;;;9.80;99.90;;;;;;4988636;28;20965;-78
2021/04/04 12:42:10;;;;;;;15.00;8.50;;;10.00;99.90;;;;;;4985653;28;20432;-78
2021/04/04 12:44:37;;;;;;;15.50;7.27;;;10.00;99.90;;;;;;4978193;28;20440;-78
2021/04/04 12:47:15;;;;;;;23.53;8.70;;;10.10;99.90;;;;;;4976666;28;20444;-78
2021/04/04 12:49:43;;;;;;;16.20;8.93;;;10.10;99.90;;;;;;4989182;28;20447;-78
2021/04/04 12:52:10;;;;;;;14.70;10.27;;;10.10;99.90;;;;;;4991361;28;20459;-78
2021/04/04 12:54:39;;;;;;;17.77;9.97;;;10.10;99.90;;;;;;4977464;28;20760;-78
2021/04/04 12:57:05;;;;;;;15.87;11.00;;;10.20;99.90;;;;;;4979020;28;20459;-77
2021/04/04 12:59:30;;;;;;;23.67;9.40;;;10.10;99.90;;;;;;4981565;28;20488;-77
2021/04/04 13:01:56;;;;;;;15.67;9.37;;;10.30;99.90;;;;;;4979781;28;20470;-78
2021/04/04 13:04:23;;;;;;;13.00;8.90;;;10.40;99.90;;;;;;4982871;28;20182;-76
2021/04/04 13:06:50;;;;;;;16.17;8.40;;;10.60;99.90;;;;;;4991046;28;20253;-77
2021/04/04 13:09:17;;;;;;;10.73;7.27;;;10.50;99.90;;;;;;5024458;28;20435;-79
2021/04/04 13:11:45;;;;;;;12.83;8.40;;;10.40;99.90;;;;;;4995637;28;20432;-79